Time;durP1;ratioP1;P1;durP2;ratioP2;P2;SDS_P1;SDS_P2;PMS_P1;PMS_P2;Temp;Humidity;BMP_temperature;BMP_pressure;BME280_temperature;BME280_humidity;BME280_pressure;Samples;Min_cycle;Max_cycle;Signal;HPM_P1;HPM_P2
2021/12/13 00:02:35;;;;;;;1999.90;999.90;;;9.30;99.90;;;;;;5006485;28;20488;-69
2021/12/13 00:05:08;;;;;;;1999.90;999.90;;;9.40;99.90;;;;;;5008424;28;20038;-68
2021/12/13 00:07:38;;;;;;;1999.90;999.90;;;9.40;99.90;;;;;;4992255;28;20579;-69
2021/12/13 00:10:13;;;;;;;1999.90;999.90;;;9.30;99.90;;;;;;4959299;28;20042;-69
2021/12/13 00:12:45;;;;;;;1999.90;999.90;;;9.40;99.90;;;;;;4992979;28;20055;-69
2021/12/13 00:15:26;;;;;;;1999.90;999.90;;;9.30;99.90;;;;;;4992578;28;20057;-69
2021/12/13 00:17:53;;;;;;;1999.90;999.90;;;9.30;99.90;;;;;;4975269;28;20129;-69
2021/12/13 00:20:29;;;;;;;1999.90;999.90;;;9.40;99.90;;;;;;4992931;28;20137;-69
2021/12/13 00:23:01;;;;;;;1999.90;999.90;;;9.30;99.90;;;;;;4992419;28;20101;-69
2021/12/13 00:25:29;;;;;;;1999.90;999.90;;;9.30;99.90;;;;;;4992790;28;20556;-68
2021/12/13 00:28:10;;;;;;;1999.90;999.90;;;9.30;99.90;;;;;;4992671;28;20046;-68
2021/12/13 00:30:47;;;;;;;1999.90;999.90;;;9.30;99.90;;;;;;4974651;28;20133;-69
2021/12/13 00:33:26;;;;;;;1999.90;999.90;;;9.20;99.90;;;;;;4973399;28;20138;-69
2021/12/13 00:36:02;;;;;;;1999.90;999.90;;;9.20;99.90;;;;;;4972896;28;20474;-69
2021/12/13 00:38:34;;;;;;;1999.90;999.90;;;9.20;99.90;;;;;;4992252;28;20058;-69
2021/12/13 00:41:05;;;;;;;1999.90;999.90;;;9.30;99.90;;;;;;4992991;28;20046;-68
2021/12/13 00:43:40;;;;;;;1999.90;999.90;;;9.40;99.90;;;;;;4979435;28;20579;-69
2021/12/13 00:46:11;;;;;;;1999.90;999.90;;;9.30;99.90;;;;;;4991909;28;20056;-69
2021/12/13 00:48:42;;;;;;;1999.90;999.90;;;9.30;99.90;;;;;;4992857;28;20042;-69
2021/12/13 00:51:11;;;;;;;1999.90;999.90;;;9.30;99.90;;;;;;4976474;28;20054;-69
2021/12/13 00:53:41;;;;;;;1999.90;999.90;;;9.40;99.90;;;;;;4996265;28;20485;-69
2021/12/13 00:56:44;;;;;;;1999.90;999.90;;;9.30;99.90;;;;;;5026458;28;20042;-69
2021/12/13 00:59:18;;;;;;;1999.90;999.90;;;9.30;99.90;;;;;;4996437;28;20049;-69
2021/12/13 01:01:52;;;;;;;1999.90;999.90;;;9.30;99.90;;;;;;4994464;28;20148;-69
2021/12/13 01:04:18;;;;;;;1999.90;999.90;;;9.30;99.90;;;;;;4995356;28;20038;-69
2021/12/13 01:07:21;;;;;;;1999.90;999.90;;;9.20;99.90;;;;;;4996171;28;20058;-68
2021/12/13 01:10:24;;;;;;;1999.90;999.90;;;9.30;99.90;;;;;;4995737;28;20507;-69
2021/12/13 01:12:51;;;;;;;1999.90;999.90;;;9.30;99.90;;;;;;4994855;28;20104;-68
2021/12/13 01:15:30;;;;;;;1999.90;999.90;;;9.30;99.90;;;;;;4995773;28;20042;-68
2021/12/13 01:18:17;;;;;;;1999.90;999.90;;;9.30;99.90;;;;;;4993681;28;20477;-69
2021/12/13 01:21:01;;;;;;;1999.90;999.90;;;9.30;99.90;;;;;;4995769;28;20077;-68
2021/12/13 01:23:47;;;;;;;1999.90;999.90;;;9.40;99.90;;;;;;4995228;28;20097;-69
2021/12/13 01:26:29;;;;;;;1999.90;999.90;;;9.40;99.90;;;;;;4995095;28;20058;-68
2021/12/13 01:28:59;;;;;;;1999.90;999.90;;;9.30;99.90;;;;;;4995816;28;20093;-68
2021/12/13 01:31:36;;;;;;;1999.90;999.90;;;9.40;99.90;;;;;;5020228;28;20050;-68
2021/12/13 01:34:04;;;;;;;1999.90;999.90;;;9.40;99.90;;;;;;4995004;28;20050;-69
2021/12/13 01:36:43;;;;;;;1999.90;999.90;;;9.40;99.90;;;;;;4995988;28;20073;-69
2021/12/13 01:39:14;;;;;;;1999.90;999.90;;;9.40;99.90;;;;;;4994242;28;20413;-69
2021/12/13 01:41:45;;;;;;;1999.90;999.90;;;9.40;99.90;;;;;;4995721;28;20046;-68
2021/12/13 01:44:18;;;;;;;1999.90;999.90;;;9.30;99.90;;;;;;5020660;28;20134;-69
2021/12/13 01:46:50;;;;;;;1999.90;999.90;;;9.40;99.90;;;;;;4994180;28;20536;-69
2021/12/13 01:49:16;;;;;;;1999.90;999.90;;;9.40;99.90;;;;;;4995072;28;20066;-69
2021/12/13 01:51:43;;;;;;;1999.90;999.90;;;9.40;99.90;;;;;;5010376;28;20058;-69
2021/12/13 01:54:20;;;;;;;1999.90;999.90;;;9.40;99.90;;;;;;4994420;28;20061;-69
2021/12/13 01:56:56;;;;;;;1999.90;999.90;;;9.30;99.90;;;;;;4995028;28;20389;-68
2021/12/13 02:02:13;;;;;;;1999.90;999.90;;;9.30;99.90;;;;;;4993348;28;20072;-69
2021/12/13 02:04:41;;;;;;;1999.90;999.90;;;9.30;99.90;;;;;;4977387;28;20054;-69
2021/12/13 02:07:08;;;;;;;1999.90;999.90;;;9.40;99.90;;;;;;4994183;28;20054;-69
2021/12/13 02:09:39;;;;;;;1999.90;999.90;;;9.40;99.90;;;;;;4993246;28;20096;-69
2021/12/13 02:12:12;;;;;;;1999.90;999.90;;;9.40;99.90;;;;;;4994991;28;20053;-69
2021/12/13 02:14:47;;;;;;;1999.90;999.90;;;9.30;99.90;;;;;;4994051;28;20038;-69
2021/12/13 02:17:18;;;;;;;1999.90;999.90;;;9.30;99.90;;;;;;4994774;28;20081;-69
2021/12/13 02:19:53;;;;;;;1999.90;999.90;;;9.30;99.90;;;;;;4994691;28;20042;-69
2021/12/13 02:22:35;;;;;;;1999.90;999.90;;;9.40;99.90;;;;;;4993353;28;20057;-69
2021/12/13 02:25:11;;;;;;;1999.90;999.90;;;9.30;99.90;;;;;;4994800;28;20520;-69
2021/12/13 02:27:39;;;;;;;1999.90;999.90;;;9.30;99.90;;;;;;4994795;28;20129;-69
2021/12/13 02:30:13;;;;;;;1999.90;999.90;;;9.30;99.90;;;;;;4993455;28;20050;-70
2021/12/13 02:32:42;;;;;;;1999.90;999.90;;;9.30;99.90;;;;;;4994283;28;20129;-70
2021/12/13 02:35:10;;;;;;;1999.90;999.90;;;9.40;99.90;;;;;;4993845;28;20571;-69
2021/12/13 02:37:38;;;;;;;1999.90;999.90;;;9.40;99.90;;;;;;4994160;28;20054;-70
2021/12/13 02:40:05;;;;;;;1999.90;999.90;;;9.40;99.90;;;;;;4994109;28;20057;-70
2021/12/13 02:42:33;;;;;;;1999.90;999.90;;;9.50;99.90;;;;;;4993712;28;20125;-70
2021/12/13 02:45:12;;;;;;;1999.90;999.90;;;9.40;99.90;;;;;;4994170;28;20077;-70
2021/12/13 02:47:44;;;;;;;1999.90;999.90;;;9.40;99.90;;;;;;4994101;28;20054;-69
2021/12/13 02:50:17;;;;;;;1999.90;999.90;;;9.40;99.90;;;;;;4983725;28;20053;-69
2021/12/13 02:52:44;;;;;;;1999.90;999.90;;;9.50;99.90;;;;;;4993740;28;20050;-70
2021/12/13 02:55:19;;;;;;;1999.90;999.90;;;9.50;99.90;;;;;;4976500;28;20138;-70
2021/12/13 02:57:48;;;;;;;1999.90;999.90;;;9.40;99.90;;;;;;4975479;28;20556;-70
2021/12/13 03:00:14;;;;;;;1999.90;999.90;;;9.50;99.90;;;;;;4976273;28;20065;-69
2021/12/13 03:02:43;;;;;;;1999.90;999.90;;;9.40;99.90;;;;;;4994155;28;20054;-70
2021/12/13 03:05:15;;;;;;;1999.90;999.90;;;9.50;99.90;;;;;;4993151;28;20050;-70
2021/12/13 03:07:48;;;;;;;1999.90;999.90;;;9.50;99.90;;;;;;4993161;28;20054;-69
2021/12/13 03:10:19;;;;;;;1999.90;999.90;;;9.50;99.90;;;;;;4993123;28;20066;-70
2021/12/13 03:12:45;;;;;;;1999.90;999.90;;;9.50;99.90;;;;;;4993799;28;20485;-69
2021/12/13 03:15:17;;;;;;;1999.90;999.90;;;9.50;99.90;;;;;;4993411;28;20042;-69
2021/12/13 03:17:54;;;;;;;1999.90;999.90;;;9.60;99.90;;;;;;4992845;28;20062;-69
2021/12/13 03:20:25;;;;;;;1999.90;999.90;;;9.50;99.90;;;;;;4993415;28;20050;-70
2021/12/13 03:23:15;;;;;;;1999.90;999.90;;;9.50;99.90;;;;;;5008341;28;20086;-69
2021/12/13 03:26:03;;;;;;;1999.90;999.90;;;9.50;99.90;;;;;;4992665;28;20077;-69
2021/12/13 03:28:56;;;;;;;1999.90;999.90;;;9.50;99.90;;;;;;4993163;28;20496;-69
2021/12/13 03:31:26;;;;;;;1999.90;999.90;;;9.50;99.90;;;;;;4992479;28;20551;-69
2021/12/13 03:34:01;;;;;;;1999.90;999.90;;;9.50;99.90;;;;;;4993111;28;20080;-69
2021/12/13 03:36:45;;;;;;;1999.90;999.90;;;9.50;99.90;;;;;;4992946;28;20046;-69
2021/12/13 03:39:17;;;;;;;1999.90;999.90;;;9.40;99.90;;;;;;4992924;28;20054;-69
2021/12/13 03:41:46;;;;;;;1999.90;999.90;;;9.40;99.90;;;;;;4993603;28;20050;-69
2021/12/13 03:44:17;;;;;;;1999.90;999.90;;;9.40;99.90;;;;;;4992771;28;20289;-69
2021/12/13 03:46:46;;;;;;;1999.90;999.90;;;9.40;99.90;;;;;;4992837;28;20496;-69
2021/12/13 03:49:12;;;;;;;1999.90;999.90;;;9.30;99.90;;;;;;4993513;28;20043;-69
2021/12/13 03:51:41;;;;;;;1999.90;999.90;;;9.30;99.90;;;;;;4992645;28;20137;-70
2021/12/13 03:54:11;;;;;;;1999.90;999.90;;;9.20;99.90;;;;;;4992665;28;20046;-69
2021/12/13 03:56:42;;;;;;;1999.90;999.90;;;9.30;99.90;;;;;;4993346;28;20063;-70
2021/12/13 03:59:14;;;;;;;1999.90;999.90;;;9.20;99.90;;;;;;4993103;28;20039;-69
2021/12/13 04:01:44;;;;;;;1999.90;999.90;;;9.20;99.90;;;;;;4991937;28;20061;-69
2021/12/13 04:04:17;;;;;;;1999.90;999.90;;;9.20;99.90;;;;;;4993227;28;20104;-69
2021/12/13 04:06:47;;;;;;;1999.90;999.90;;;9.20;99.90;;;;;;4992104;28;20050;-69
2021/12/13 04:09:15;;;;;;;1999.90;999.90;;;9.20;99.90;;;;;;4975831;28;20492;-70
2021/12/13 04:11:44;;;;;;;1999.90;999.90;;;9.10;99.90;;;;;;4993013;28;20500;-69
2021/12/13 04:14:21;;;;;;;1999.90;999.90;;;9.10;99.90;;;;;;4992299;28;20050;-69
2021/12/13 04:17:09;;;;;;;1999.90;999.90;;;9.10;99.90;;;;;;4993267;28;20121;-69
2021/12/13 04:19:58;;;;;;;1999.90;999.90;;;9.20;99.90;;;;;;4992888;28;20477;-69
2021/12/13 04:22:29;;;;;;;1999.90;999.90;;;9.10;99.90;;;;;;4992065;28;20045;-69
2021/12/13 04:25:01;;;;;;;1999.90;999.90;;;9.10;99.90;;;;;;4992990;28;20076;-69
2021/12/13 04:27:33;;;;;;;1999.90;999.90;;;9.00;99.90;;;;;;4996371;28;20050;-69
2021/12/13 04:30:12;;;;;;;1999.90;999.90;;;9.10;99.90;;;;;;4996536;28;20405;-69
2021/12/13 04:32:44;;;;;;;1999.90;999.90;;;9.00;99.90;;;;;;4996860;28;20097;-68
2021/12/13 04:35:11;;;;;;;1999.90;999.90;;;9.00;99.90;;;;;;4995751;28;20057;-69
2021/12/13 04:37:44;;;;;;;1999.90;999.90;;;9.00;99.90;;;;;;4996537;28;20049;-68
2021/12/13 04:40:18;;;;;;;1999.90;999.90;;;9.00;99.90;;;;;;4996805;28;20053;-69
2021/12/13 04:42:47;;;;;;;1999.90;999.90;;;9.00;99.90;;;;;;4978069;28;20050;-69
2021/12/13 04:45:17;;;;;;;1999.90;999.90;;;9.00;99.90;;;;;;4996087;28;20052;-68
2021/12/13 04:48:03;;;;;;;1999.90;999.90;;;8.90;99.90;;;;;;4996163;28;20481;-69
2021/12/13 04:50:38;;;;;;;1999.90;999.90;;;9.00;99.90;;;;;;4995464;28;20061;-68
2021/12/13 04:53:04;;;;;;;1999.90;999.90;;;8.90;99.90;;;;;;4996141;28;20050;-68
2021/12/13 04:55:36;;;;;;;1999.90;999.90;;;8.90;99.90;;;;;;4996277;28;20050;-68
2021/12/13 04:58:07;;;;;;;1999.90;999.90;;;8.90;99.90;;;;;;4995762;28;20567;-68
2021/12/13 05:00:37;;;;;;;1999.90;999.90;;;9.00;99.90;;;;;;4996181;28;20058;-69
2021/12/13 05:03:04;;;;;;;1999.90;999.90;;;8.90;99.90;;;;;;4995167;28;20104;-69
2021/12/13 05:05:32;;;;;;;1999.90;999.90;;;9.00;99.90;;;;;;4995784;28;20121;-68
2021/12/13 05:07:58;;;;;;;1999.90;999.90;;;8.90;99.90;;;;;;4978551;28;20050;-68
2021/12/13 05:10:25;;;;;;;1999.90;999.90;;;8.90;99.90;;;;;;4995114;28;20042;-69
2021/12/13 05:13:01;;;;;;;1999.90;999.90;;;8.80;99.90;;;;;;4995748;28;20047;-68
2021/12/13 05:15:27;;;;;;;1999.90;999.90;;;8.90;99.90;;;;;;4995974;28;20050;-68
2021/12/13 05:17:54;;;;;;;1999.90;999.90;;;8.80;99.90;;;;;;4995358;28;20046;-67
2021/12/13 05:20:32;;;;;;;1999.90;999.90;;;8.80;99.90;;;;;;4995443;28;20061;-68
2021/12/13 05:23:04;;;;;;;1999.90;999.90;;;8.80;99.90;;;;;;4995601;28;20527;-68
2021/12/13 05:25:35;;;;;;;1999.90;999.90;;;8.70;99.90;;;;;;4995244;28;20073;-68
2021/12/13 05:28:03;;;;;;;1999.90;999.90;;;8.70;99.90;;;;;;4995550;28;20054;-69
2021/12/13 05:30:31;;;;;;;1999.90;999.90;;;8.70;99.90;;;;;;4995542;28;20145;-68
2021/12/13 05:33:03;;;;;;;1999.90;999.90;;;8.60;99.90;;;;;;4994953;28;20490;-67
2021/12/13 05:35:35;;;;;;;1999.90;999.90;;;8.60;99.90;;;;;;4995459;28;20078;-68
2021/12/13 05:38:07;;;;;;;1999.90;999.90;;;8.70;99.90;;;;;;4993463;28;20092;-68
2021/12/13 05:40:44;;;;;;;1999.90;999.90;;;8.60;99.90;;;;;;4995618;28;20058;-68
2021/12/13 05:43:18;;;;;;;1999.90;999.90;;;8.60;99.90;;;;;;4995090;28;20451;-68
2021/12/13 05:45:53;;;;;;;1999.90;999.90;;;8.60;99.90;;;;;;5026381;28;20050;-68
2021/12/13 05:48:23;;;;;;;1999.90;999.90;;;8.50;99.90;;;;;;4977913;28;20062;-68
2021/12/13 05:50:53;;;;;;;1999.90;999.90;;;8.50;99.90;;;;;;4995171;28;20485;-68
2021/12/13 05:53:21;;;;;;;1999.90;999.90;;;8.60;99.90;;;;;;4994438;28;20058;-68
2021/12/13 05:56:06;;;;;;;1999.90;999.90;;;8.60;99.90;;;;;;4995069;28;20492;-68
2021/12/13 05:58:53;;;;;;;1999.90;999.90;;;8.50;99.90;;;;;;4994900;28;20500;-68
2021/12/13 06:01:26;;;;;;;1999.90;999.90;;;8.50;99.90;;;;;;4994723;28;20061;-68
2021/12/13 06:04:07;;;;;;;1999.90;999.90;;;8.60;99.90;;;;;;4994906;28;20043;-68
2021/12/13 06:06:45;;;;;;;1999.90;999.90;;;8.60;99.90;;;;;;5009693;28;20054;-68
2021/12/13 06:09:31;;;;;;;1999.90;999.90;;;8.60;99.90;;;;;;5008937;28;20439;-67
2021/12/13 06:12:06;;;;;;;1999.90;999.90;;;8.60;99.90;;;;;;4998133;28;20052;-68
2021/12/13 06:14:32;;;;;;;1999.90;999.90;;;8.60;99.90;;;;;;5025234;28;20069;-67
2021/12/13 06:17:17;;;;;;;1999.90;999.90;;;8.60;99.90;;;;;;5013973;28;20045;-68
2021/12/13 06:19:57;;;;;;;1999.90;999.90;;;8.60;99.90;;;;;;5012995;28;20100;-67
2021/12/13 06:22:26;;;;;;;1999.90;999.90;;;8.50;99.90;;;;;;5011617;28;20068;-67
2021/12/13 06:24:56;;;;;;;1999.90;999.90;;;8.50;99.90;;;;;;5013570;28;20049;-67
2021/12/13 06:27:25;;;;;;;1999.90;999.90;;;8.50;99.90;;;;;;5012370;28;20046;-67
2021/12/13 06:30:18;;;;;;;1999.90;999.90;;;8.60;99.90;;;;;;5013881;28;20046;-67
2021/12/13 06:32:57;;;;;;;1999.90;999.90;;;8.60;99.90;;;;;;5010571;28;20038;-67
2021/12/13 06:35:39;;;;;;;1999.90;999.90;;;8.60;99.90;;;;;;5013099;28;20042;-66
2021/12/13 06:38:18;;;;;;;1999.90;999.90;;;8.40;99.90;;;;;;5013610;28;20532;-67
2021/12/13 06:41:03;;;;;;;1999.90;999.90;;;8.40;99.90;;;;;;5011653;28;20045;-67
2021/12/13 06:43:39;;;;;;;1999.90;999.90;;;8.40;99.90;;;;;;5006335;28;20137;-67
2021/12/13 06:46:25;;;;;;;1999.90;999.90;;;8.40;99.90;;;;;;5013467;28;20050;-67
2021/12/13 06:48:54;;;;;;;1999.90;999.90;;;8.40;99.90;;;;;;5023455;28;20058;-67
2021/12/13 06:51:39;;;;;;;1999.90;999.90;;;8.40;99.90;;;;;;4994353;28;20396;-67
2021/12/13 06:54:09;;;;;;;1999.90;999.90;;;8.40;99.90;;;;;;4994097;28;20046;-67
2021/12/13 06:56:36;;;;;;;1999.90;999.90;;;8.50;99.90;;;;;;4992753;28;20180;-68
2021/12/13 06:59:06;;;;;;;1999.90;999.90;;;8.50;99.90;;;;;;4974444;28;20125;-67
2021/12/13 07:01:34;;;;;;;1999.90;999.90;;;8.50;99.90;;;;;;5004731;28;20530;-67
2021/12/13 07:04:05;;;;;;;1999.90;999.90;;;8.60;99.90;;;;;;5011927;28;20511;-67
2021/12/13 07:06:31;;;;;;;1999.90;999.90;;;8.60;99.90;;;;;;5003711;28;20058;-67
2021/12/13 07:09:08;;;;;;;1999.90;999.90;;;8.60;99.90;;;;;;4996706;28;20408;-67
2021/12/13 07:11:49;;;;;;;1999.90;999.90;;;8.60;99.90;;;;;;5012097;28;20104;-67
2021/12/13 07:14:18;;;;;;;1999.90;999.90;;;8.60;99.90;;;;;;5011219;28;20392;-67
2021/12/13 07:16:50;;;;;;;1999.90;999.90;;;8.60;99.90;;;;;;5008014;28;20064;-67
2021/12/13 07:19:23;;;;;;;1999.90;999.90;;;8.50;99.90;;;;;;5012794;28;20042;-67
2021/12/13 07:21:56;;;;;;;1999.90;999.90;;;8.50;99.90;;;;;;5012771;28;20050;-66
2021/12/13 07:24:33;;;;;;;1999.90;999.90;;;8.50;99.90;;;;;;5001170;28;20057;-66
2021/12/13 07:27:05;;;;;;;1999.90;999.90;;;8.60;99.90;;;;;;5012859;28;20076;-66
2021/12/13 07:29:43;;;;;;;1999.90;999.90;;;8.50;99.90;;;;;;5011117;28;20137;-66
2021/12/13 07:32:12;;;;;;;1999.90;999.90;;;8.50;99.90;;;;;;4984699;28;20046;-66
2021/12/13 07:34:50;;;;;;;1999.90;999.90;;;8.60;99.90;;;;;;4992684;28;20042;-66
2021/12/13 07:37:18;;;;;;;1999.90;999.90;;;8.50;99.90;;;;;;4992758;28;20065;-66
2021/12/13 07:39:44;;;;;;;1999.90;999.90;;;8.50;99.90;;;;;;5004812;28;20041;-66
2021/12/13 07:42:13;;;;;;;1999.90;999.90;;;8.50;99.90;;;;;;5009129;28;20056;-65
2021/12/13 07:44:41;;;;;;;1999.90;999.90;;;8.40;99.90;;;;;;5009522;28;20056;-65
2021/12/13 07:47:21;;;;;;;1999.90;999.90;;;8.40;99.90;;;;;;5027356;28;20045;-66
2021/12/13 07:49:56;;;;;;;1999.90;999.90;;;8.40;99.90;;;;;;5010413;28;20097;-65
2021/12/13 07:52:29;;;;;;;1999.90;999.90;;;8.50;99.90;;;;;;5009255;28;20049;-66
2021/12/13 07:54:57;;;;;;;1999.90;999.90;;;8.40;99.90;;;;;;5012492;28;20086;-66
2021/12/13 07:57:29;;;;;;;1999.90;999.90;;;8.50;99.90;;;;;;5022488;28;20053;-66
2021/12/13 07:59:56;;;;;;;1999.90;999.90;;;8.50;99.90;;;;;;5003911;28;20137;-66
2021/12/13 08:02:27;;;;;;;1999.90;999.90;;;8.50;99.90;;;;;;5016804;28;20129;-66
2021/12/13 08:05:02;;;;;;;1999.90;999.90;;;8.50;99.90;;;;;;5016024;28;20089;-65
2021/12/13 08:07:39;;;;;;;1999.90;999.90;;;8.50;99.90;;;;;;5011034;28;20049;-66
2021/12/13 08:10:19;;;;;;;1999.90;999.90;;;8.50;99.90;;;;;;4998173;28;20419;-66
2021/12/13 08:12:51;;;;;;;1999.90;999.90;;;8.40;99.90;;;;;;5015392;28;20038;-65
2021/12/13 08:15:23;;;;;;;1999.90;999.90;;;8.40;99.90;;;;;;5015939;28;20042;-65
2021/12/13 08:17:49;;;;;;;1999.90;999.90;;;8.30;99.90;;;;;;5012988;28;20053;-66
2021/12/13 08:20:40;;;;;;;1999.90;999.90;;;8.30;99.90;;;;;;5015294;28;20485;-65
2021/12/13 08:23:20;;;;;;;1999.90;999.90;;;8.40;99.90;;;;;;5011256;28;20050;-66
2021/12/13 08:25:52;;;;;;;1999.90;999.90;;;8.40;99.90;;;;;;4999410;28;20054;-66
2021/12/13 08:28:20;;;;;;;1999.90;999.90;;;8.50;99.90;;;;;;5015316;28;20053;-66
2021/12/13 08:30:52;;;;;;;1999.90;999.90;;;8.50;99.90;;;;;;5013008;28;20502;-66
2021/12/13 08:33:22;;;;;;;1999.90;999.90;;;8.50;99.90;;;;;;4996709;28;20042;-66
2021/12/13 08:35:59;;;;;;;1999.90;999.90;;;8.50;99.90;;;;;;5011339;28;20424;-66
2021/12/13 08:38:29;;;;;;;1999.90;999.90;;;8.50;99.90;;;;;;5016335;28;20058;-66
2021/12/13 08:40:57;;;;;;;1999.90;999.90;;;8.50;99.90;;;;;;5015103;28;20050;-65
2021/12/13 08:43:36;;;;;;;1999.90;999.90;;;8.50;99.90;;;;;;5010540;28;20408;-65
2021/12/13 08:46:03;;;;;;;1999.90;999.90;;;8.50;99.90;;;;;;4996491;28;20064;-65
2021/12/13 08:48:29;;;;;;;1999.90;999.90;;;8.50;99.90;;;;;;5010442;28;20492;-65
2021/12/13 08:50:59;;;;;;;1999.90;999.90;;;8.50;99.90;;;;;;4979113;28;20082;-66
2021/12/13 08:53:31;;;;;;;1999.90;999.90;;;8.50;99.90;;;;;;5011200;28;20128;-66
2021/12/13 08:56:04;;;;;;;1999.90;999.90;;;8.60;99.90;;;;;;5015170;28;20128;-66
2021/12/13 08:58:31;;;;;;;1999.90;999.90;;;8.60;99.90;;;;;;5015910;28;20392;-66
2021/12/13 09:01:03;;;;;;;1999.90;999.90;;;8.60;99.90;;;;;;5010830;28;20461;-66
2021/12/13 09:03:35;;;;;;;1999.90;999.90;;;8.60;99.90;;;;;;4995124;28;20385;-66
2021/12/13 09:06:17;;;;;;;1999.90;999.90;;;8.70;99.90;;;;;;4995914;28;20078;-66
2021/12/13 09:08:50;;;;;;;1999.90;999.90;;;8.70;99.90;;;;;;4996147;28;20076;-66
2021/12/13 09:11:25;;;;;;;1999.90;999.90;;;8.80;99.90;;;;;;4977714;28;20113;-66
2021/12/13 09:14:12;;;;;;;1999.90;999.90;;;8.80;99.90;;;;;;4996052;28;20057;-66
2021/12/13 09:17:11;;;;;;;1999.90;999.90;;;8.80;99.90;;;;;;4998060;28;20053;-66
2021/12/13 09:19:48;;;;;;;1999.90;999.90;;;8.70;99.90;;;;;;5009172;28;20045;-65
2021/12/13 09:22:19;;;;;;;1999.90;999.90;;;8.60;99.90;;;;;;5014970;28;20041;-65
2021/12/13 09:24:51;;;;;;;1999.90;999.90;;;8.60;99.90;;;;;;5012002;28;20052;-66
2021/12/13 09:27:28;;;;;;;1999.90;999.90;;;8.60;99.90;;;;;;5012221;28;20050;-66
2021/12/13 09:30:01;;;;;;;1999.90;999.90;;;8.60;99.90;;;;;;4995414;28;20046;-66
2021/12/13 09:32:34;;;;;;;;;;;8.70;99.90;;;;;;4995865;28;20054;-66
2021/12/13 09:35:24;;;;;;;1999.90;999.90;;;8.70;99.90;;;;;;4995559;28;20423;-66
2021/12/13 09:37:52;;;;;;;1999.90;999.90;;;8.80;99.90;;;;;;4994632;28;20047;-66
2021/12/13 09:40:24;;;;;;;1999.90;999.90;;;8.80;99.90;;;;;;4992845;28;20132;-65
2021/12/13 09:42:55;;;;;;;1999.90;999.90;;;8.80;99.90;;;;;;4997627;28;20042;-66
2021/12/13 09:45:29;;;;;;;1999.90;999.90;;;8.80;99.90;;;;;;5007782;28;20277;-66
2021/12/13 09:47:55;;;;;;;1999.90;999.90;;;8.90;99.90;;;;;;5012872;28;20539;-66
2021/12/13 09:50:27;;;;;;;1999.90;999.90;;;8.80;99.90;;;;;;5014569;28;20088;-66
2021/12/13 09:52:59;;;;;;;1999.90;999.90;;;8.80;99.90;;;;;;5013679;28;20073;-66
2021/12/13 09:55:30;;;;;;;1999.90;999.90;;;8.90;99.90;;;;;;5013583;28;20052;-66
2021/12/13 09:58:05;;;;;;;1999.90;999.90;;;8.90;99.90;;;;;;5013550;28;20579;-66
2021/12/13 10:00:43;;;;;;;1999.90;999.90;;;9.00;99.90;;;;;;5014128;28;20056;-66
2021/12/13 10:03:15;;;;;;;1999.90;999.90;;;9.00;99.90;;;;;;5007902;28;20057;-67
2021/12/13 10:05:45;;;;;;;1999.90;999.90;;;9.00;99.90;;;;;;5013569;28;20476;-66
2021/12/13 10:08:15;;;;;;;1999.90;999.90;;;9.10;99.90;;;;;;5014459;28;20359;-66
2021/12/13 10:10:49;;;;;;;1999.90;999.90;;;9.10;99.90;;;;;;5014407;28;20042;-66
2021/12/13 10:13:21;;;;;;;1999.90;999.90;;;9.10;99.90;;;;;;4996510;28;20057;-66
2021/12/13 10:15:53;;;;;;;1999.90;999.90;;;9.10;99.90;;;;;;4994561;28;20038;-66
2021/12/13 10:18:22;;;;;;;1999.90;999.90;;;9.10;99.90;;;;;;4995189;28;20117;-66
2021/12/13 10:20:54;;;;;;;1999.90;999.90;;;9.10;99.90;;;;;;5005818;28;20555;-66
2021/12/13 10:23:25;;;;;;;1999.90;999.90;;;9.10;99.90;;;;;;5010059;28;20079;-67
2021/12/13 10:25:53;;;;;;;1999.90;999.90;;;9.10;99.90;;;;;;5014051;28;20057;-66
2021/12/13 10:28:23;;;;;;;1999.90;999.90;;;9.10;99.90;;;;;;5028624;28;20132;-66
2021/12/13 10:31:06;;;;;;;1999.90;999.90;;;9.20;99.90;;;;;;4997474;28;20042;-66
2021/12/13 10:33:34;;;;;;;1999.90;999.90;;;9.10;99.90;;;;;;4993719;28;20061;-67
2021/12/13 10:36:02;;;;;;;1999.90;999.90;;;9.20;99.90;;;;;;4994579;28;20042;-66
2021/12/13 10:38:35;;;;;;;1999.90;999.90;;;9.20;99.90;;;;;;4993884;28;20046;-66
2021/12/13 10:41:08;;;;;;;1999.90;999.90;;;9.20;99.90;;;;;;4993932;28;20050;-66
2021/12/13 10:43:41;;;;;;;1999.90;999.90;;;9.20;99.90;;;;;;4994388;28;20104;-66
2021/12/13 10:46:13;;;;;;;1999.90;999.90;;;9.20;99.90;;;;;;5009882;28;20516;-67
2021/12/13 10:48:45;;;;;;;1999.90;999.90;;;9.30;99.90;;;;;;5009906;28;20052;-66
2021/12/13 10:51:17;;;;;;;1999.90;999.90;;;9.20;99.90;;;;;;4992057;28;20068;-66
2021/12/13 10:53:46;;;;;;;1999.90;999.90;;;9.20;99.90;;;;;;5009571;28;20085;-66
2021/12/13 10:56:21;;;;;;;1999.90;999.90;;;9.20;99.90;;;;;;5005115;28;20053;-66
2021/12/13 10:58:50;;;;;;;1999.90;999.90;;;9.20;99.90;;;;;;4993978;28;20126;-66
2021/12/13 11:01:19;;;;;;;1999.90;999.90;;;9.30;99.90;;;;;;4993446;28;20054;-67
2021/12/13 11:03:46;;;;;;;1999.90;999.90;;;9.30;99.90;;;;;;4993688;28;20054;-66
2021/12/13 11:06:14;;;;;;;1999.90;999.90;;;9.30;99.90;;;;;;4991570;28;20057;-67
2021/12/13 11:08:42;;;;;;;1999.90;999.90;;;9.30;99.90;;;;;;4972755;28;20185;-67
2021/12/13 11:11:17;;;;;;;1999.90;999.90;;;9.30;99.90;;;;;;4993573;28;20054;-66
2021/12/13 11:13:44;;;;;;;1999.90;999.90;;;9.30;99.90;;;;;;4992715;28;20648;-67
2021/12/13 11:16:15;;;;;;;1999.90;999.90;;;9.30;99.90;;;;;;4991101;28;20061;-67
2021/12/13 11:18:41;;;;;;;1999.90;999.90;;;9.30;99.90;;;;;;4990282;28;20515;-67
2021/12/13 11:21:13;;;;;;;1999.90;999.90;;;9.30;99.90;;;;;;4990078;28;20489;-67
2021/12/13 11:23:40;;;;;;;1999.90;999.90;;;9.30;99.90;;;;;;4991314;28;20048;-67
2021/12/13 11:26:09;;;;;;;1999.90;999.90;;;9.30;99.90;;;;;;4993089;28;20485;-67
2021/12/13 11:28:36;;;;;;;1999.90;999.90;;;9.30;99.90;;;;;;5008298;28;20038;-67
2021/12/13 11:31:11;;;;;;;1999.90;999.90;;;9.30;99.90;;;;;;4991830;28;20042;-66
2021/12/13 11:33:37;;;;;;;1999.90;999.90;;;9.30;99.90;;;;;;4974212;28;20042;-68
2021/12/13 11:36:06;;;;;;;1999.90;999.90;;;9.30;99.90;;;;;;4972429;28;20105;-67
2021/12/13 11:38:44;;;;;;;1999.90;999.90;;;9.30;99.90;;;;;;4972998;28;20053;-66
2021/12/13 11:41:35;;;;;;;1999.90;999.90;;;9.30;99.90;;;;;;4988546;28;20473;-66
2021/12/13 11:44:33;;;;;;;1999.90;999.90;;;9.40;99.90;;;;;;4992143;28;20054;-66
2021/12/13 11:47:11;;;;;;;1999.90;999.90;;;9.40;99.90;;;;;;4993257;28;20090;-66
2021/12/13 11:49:54;;;;;;;1999.90;999.90;;;9.30;99.90;;;;;;4992953;28;20133;-66
2021/12/13 11:52:59;;;;;;;1999.90;999.90;;;9.30;99.90;;;;;;4992268;28;20125;-66
2021/12/13 11:55:37;;;;;;;1999.90;999.90;;;9.40;99.90;;;;;;4993228;28;20050;-66
2021/12/13 11:58:35;;;;;;;1999.90;999.90;;;9.40;99.90;;;;;;4992103;28;20489;-67
2021/12/13 12:01:27;;;;;;;1999.90;999.90;;;9.40;99.90;;;;;;4975232;28;20555;-66
2021/12/13 12:04:32;;;;;;;1999.90;999.90;;;9.40;99.90;;;;;;4993430;28;20081;-67
2021/12/13 12:07:24;;;;;;;1999.90;999.90;;;9.50;99.90;;;;;;4991898;28;20058;-66
2021/12/13 12:10:09;;;;;;;1999.90;999.90;;;9.50;99.90;;;;;;5008064;28;20054;-67
2021/12/13 12:13:10;;;;;;;1999.90;999.90;;;9.50;99.90;;;;;;4992537;28;20140;-66
2021/12/13 12:15:39;;;;;;;1999.90;999.90;;;9.50;99.90;;;;;;4975290;28;20050;-66
2021/12/13 12:18:10;;;;;;;1999.90;999.90;;;9.50;99.90;;;;;;4997183;28;20502;-66
2021/12/13 12:20:40;;;;;;;1999.90;999.90;;;9.40;99.90;;;;;;5007569;28;20050;-66
2021/12/13 12:23:10;;;;;;;1999.90;999.90;;;9.60;99.90;;;;;;4992079;28;21453;-67
2021/12/13 12:25:38;;;;;;;1999.90;999.90;;;9.60;99.90;;;;;;4992967;28;20069;-67
2021/12/13 12:28:10;;;;;;;1999.90;999.90;;;9.60;99.90;;;;;;5011497;28;20053;-66
2021/12/13 12:30:40;;;;;;;1999.90;999.90;;;9.60;99.90;;;;;;5023711;28;20041;-66
2021/12/13 12:33:10;;;;;;;1999.90;999.90;;;9.60;99.90;;;;;;5008352;28;20080;-66
2021/12/13 12:35:42;;;;;;;1999.90;999.90;;;9.60;99.90;;;;;;4996378;28;20038;-66
2021/12/13 12:38:36;;;;;;;1999.90;999.90;;;9.60;99.90;;;;;;5011850;28;20054;-66
2021/12/13 12:41:06;;;;;;;1999.90;999.90;;;9.50;99.90;;;;;;5008652;28;20235;-66
2021/12/13 12:43:37;;;;;;;1999.90;999.90;;;9.50;99.90;;;;;;5007750;28;20042;-66
2021/12/13 12:46:08;;;;;;;1999.90;999.90;;;9.60;99.90;;;;;;5011806;28;20050;-65